Time;durP1;ratioP1;P1;durP2;ratioP2;P2;SDS_P1;SDS_P2;PMS_P1;PMS_P2;Temp;Humidity;BMP_temperature;BMP_pressure;BME280_temperature;BME280_humidity;BME280_pressure;Samples;Min_cycle;Max_cycle;Signal;HPM_P1;HPM_P2
2022/12/31 00:04:15;;;;;;;5.22;3.38;;;3.00;99.90;;;;;;20107021;29;20354;-52
2022/12/31 00:14:17;;;;;;;5.57;3.33;;;2.90;99.90;;;;;;20045551;29;20045;-54
2022/12/31 00:24:19;;;;;;;5.70;3.25;;;2.70;99.90;;;;;;20050913;29;20046;-48
2022/12/31 00:34:20;;;;;;;5.10;2.30;;;2.60;99.90;;;;;;20106724;29;20053;-49
2022/12/31 00:44:22;;;;;;;6.70;3.38;;;2.40;99.90;;;;;;20032549;29;20049;-46
2022/12/31 00:54:24;;;;;;;5.88;3.28;;;2.40;99.90;;;;;;20076210;29;20041;-50
2022/12/31 01:04:25;;;;;;;4.45;2.90;;;2.40;99.90;;;;;;20119780;29;20114;-44
2022/12/31 01:14:27;;;;;;;4.95;2.38;;;2.40;99.90;;;;;;20055163;29;20399;-53
2022/12/31 01:24:28;;;;;;;5.18;2.60;;;2.60;99.90;;;;;;20079435;29;20050;-50
2022/12/31 01:34:30;;;;;;;4.80;2.40;;;2.60;99.90;;;;;;20117361;29;20320;-53
2022/12/31 01:44:32;;;;;;;6.05;3.00;;;2.60;99.90;;;;;;20068895;29;20118;-53
2022/12/31 01:54:39;;;;;;;6.07;3.05;;;2.40;99.90;;;;;;20078094;29;20448;-51
2022/12/31 02:04:41;;;;;;;6.30;2.90;;;2.30;99.90;;;;;;20114980;29;20074;-52
2022/12/31 02:14:46;;;;;;;4.30;2.63;;;2.20;99.90;;;;;;20032733;29;20053;-51
2022/12/31 02:24:54;;;;;;;4.68;2.97;;;2.10;99.90;;;;;;20078263;29;20049;-57
2022/12/31 02:35:02;;;;;;;4.57;2.83;;;2.00;99.90;;;;;;20096207;29;20045;-53
2022/12/31 02:45:04;;;;;;;4.05;2.47;;;2.10;99.90;;;;;;20112141;29;20496;-53
2022/12/31 02:55:05;;;;;;;6.30;2.88;;;2.10;99.90;;;;;;20104099;29;20113;-54
2022/12/31 03:05:09;;;;;;;5.25;2.95;;;2.00;99.90;;;;;;20093958;29;20033;-47
2022/12/31 03:15:23;;;;;;;4.85;2.85;;;2.10;99.90;;;;;;20040557;29;20041;-47
2022/12/31 03:25:36;;;;;;;7.30;2.60;;;2.00;99.90;;;;;;20078915;29;20094;-49
2022/12/31 03:35:40;;;;;;;5.03;3.40;;;2.10;99.90;;;;;;20070173;29;20061;-46
2022/12/31 03:45:41;;;;;;;5.72;2.92;;;2.10;99.90;;;;;;20032593;29;20050;-49
2022/12/31 03:55:43;;;;;;;4.93;2.67;;;2.10;99.90;;;;;;20079899;29;20571;-53
2022/12/31 04:05:52;;;;;;;5.30;2.92;;;2.10;99.90;;;;;;20107832;29;20380;-53
2022/12/31 04:15:53;;;;;;;4.60;2.88;;;2.10;99.90;;;;;;20033205;29;20046;-53
2022/12/31 04:25:55;;;;;;;5.45;2.70;;;2.00;99.90;;;;;;20084716;29;20050;-58
2022/12/31 04:36:01;;;;;;;5.85;2.65;;;2.00;99.90;;;;;;20121282;29;20102;-57
2022/12/31 04:46:03;;;;;;;5.40;2.72;;;2.00;99.90;;;;;;20062346;29;20042;-45
2022/12/31 04:56:06;;;;;;;4.60;2.35;;;2.00;99.90;;;;;;20093931;29;20041;-46
2022/12/31 05:06:15;;;;;;;5.13;2.45;;;1.90;99.90;;;;;;20119096;29;20448;-44
2022/12/31 05:16:17;;;;;;;4.72;2.50;;;1.90;99.90;;;;;;20022848;29;20384;-54
2022/12/31 05:26:18;;;;;;;5.40;2.63;;;1.90;99.90;;;;;;20094094;29;20045;-50
2022/12/31 05:36:20;;;;;;;5.32;3.00;;;1.90;99.90;;;;;;20116748;29;20090;-58
2022/12/31 05:46:22;;;;;;;4.60;2.88;;;1.80;99.90;;;;;;20116604;29;20057;-57
2022/12/31 05:56:23;;;;;;;6.15;2.97;;;1.90;99.90;;;;;;20108110;29;20444;-55
2022/12/31 06:06:25;;;;;;;6.82;3.40;;;1.90;99.90;;;;;;20096258;29;20041;-54
2022/12/31 06:16:27;;;;;;;6.55;3.28;;;1.90;99.90;;;;;;20021688;29;20049;-50
2022/12/31 06:26:28;;;;;;;6.35;2.88;;;2.00;99.90;;;;;;20074054;29;20045;-54
2022/12/31 06:36:30;;;;;;;4.40;2.95;;;2.10;99.90;;;;;;20098853;29;20074;-51
2022/12/31 06:46:33;;;;;;;5.97;2.55;;;2.10;99.90;;;;;;20035307;29;20050;-55
2022/12/31 06:56:35;;;;;;;7.07;2.83;;;2.00;99.90;;;;;;20072870;29;20407;-50
2022/12/31 07:06:55;;;;;;;5.13;2.97;;;1.90;99.90;;;;;;20106971;29;20082;-47
2022/12/31 07:17:11;;;;;;;5.47;2.97;;;2.00;99.90;;;;;;20017197;29;20102;-55
2022/12/31 07:27:24;;;;;;;7.43;2.95;;;2.00;99.90;;;;;;20066781;29;20075;-57
2022/12/31 07:37:33;;;;;;;6.32;2.60;;;2.20;99.90;;;;;;20055504;29;20037;-58
2022/12/31 07:47:35;;;;;;;4.60;2.55;;;2.40;99.90;;;;;;20064657;29;20106;-59
2022/12/31 07:57:52;;;;;;;4.03;2.55;;;2.80;99.90;;;;;;20095484;29;20041;-57
2022/12/31 08:08:05;;;;;;;4.63;2.58;;;3.20;99.90;;;;;;20071168;29;20046;-59
2022/12/31 08:18:08;;;;;;;5.82;2.63;;;3.60;99.90;;;;;;20027577;29;20053;-58
2022/12/31 08:28:24;;;;;;;5.88;2.45;;;3.90;99.90;;;;;;20067132;29;20046;-52
2022/12/31 08:38:49;;;;;;;4.72;1.90;;;4.50;99.90;;;;;;20073025;29;20097;-49
2022/12/31 08:48:50;;;;;;;2.20;1.60;;;5.00;99.90;;;;;;20120094;29;20403;-60
2022/12/31 08:59:13;;;;;;;2.95;1.33;;;5.00;99.90;;;;;;20090854;29;20509;-52
2022/12/31 09:09:50;;;;;;;7.45;2.90;;;5.20;99.90;;;;;;20067607;29;20106;-61
2022/12/31 09:19:52;;;;;;;3.53;1.45;;;5.60;99.90;;;;;;20036683;29;20041;-61
2022/12/31 09:30:06;;;;;;;1.45;1.10;;;6.40;99.90;;;;;;20092213;29;20422;-62
2022/12/31 09:40:32;;;;;;;2.72;1.45;;;7.20;99.90;;;;;;20066370;29;20457;-51
2022/12/31 09:51:04;;;;;;;1.40;0.90;;;8.00;99.90;;;;;;20048021;29;20045;-57
2022/12/31 10:01:15;;;;;;;2.70;0.90;;;8.60;99.90;;;;;;20104292;29;20045;-63
2022/12/31 10:11:30;;;;;;;1.92;0.90;;;9.40;99.90;;;;;;20051133;29;20114;-56
2022/12/31 10:21:59;;;;;;;1.88;1.00;;;10.00;99.90;;;;;;20052242;29;20041;-58
2022/12/31 10:32:04;;;;;;;2.10;1.30;;;10.80;99.90;;;;;;20113514;29;20038;-56
2022/12/31 10:42:43;;;;;;;2.28;1.25;;;11.10;99.90;;;;;;20067115;29;20045;-58
2022/12/31 10:53:02;;;;;;;2.25;1.00;;;11.40;99.90;;;;;;20059997;29;20491;-56
2022/12/31 11:03:22;;;;;;;2.83;1.40;;;10.70;99.90;;;;;;20094646;29;20037;-55
2022/12/31 11:13:56;;;;;;;2.33;1.50;;;10.80;99.90;;;;;;20038164;29;20118;-56
2022/12/31 11:24:08;;;;;;;3.55;1.40;;;10.80;99.90;;;;;;20067311;29;20042;-55
2022/12/31 11:34:28;;;;;;;2.60;1.27;;;10.90;99.90;;;;;;20078383;29;20054;-61
2022/12/31 11:45:09;;;;;;;1.87;1.00;;;11.20;99.90;;;;;;19998064;29;20106;-60
2022/12/31 11:55:37;;;;;;;1.48;1.05;;;11.20;99.90;;;;;;20016554;29;20057;-56
2022/12/31 12:05:39;;;;;;;3.83;1.60;;;11.00;99.90;;;;;;20064840;29;20042;-60
2022/12/31 12:15:44;;;;;;;3.60;1.60;;;10.40;99.90;;;;;;20034716;29;20049;-52
2022/12/31 12:25:46;;;;;;;2.00;1.20;;;10.30;99.90;;;;;;20078977;29;20045;-56
2022/12/31 12:35:48;;;;;;;3.78;1.40;;;10.20;99.90;;;;;;20081953;29;20178;-50
2022/12/31 12:45:57;;;;;;;2.47;1.20;;;9.90;99.90;;;;;;20032967;29;20054;-56
2022/12/31 12:56:43;;;;;;;3.00;1.73;;;10.00;99.90;;;;;;20076895;29;20053;-57
2022/12/31 13:07:12;;;;;;;2.80;1.67;;;10.10;99.90;;;;;;20110438;29;20038;-56
2022/12/31 13:18:01;;;;;;;2.72;1.70;;;10.00;99.90;;;;;;20042319;29;20126;-56
2022/12/31 13:28:10;;;;;;;2.60;1.65;;;9.80;99.90;;;;;;20102279;29;20045;-54
2022/12/31 13:38:37;;;;;;;2.08;1.42;;;9.50;99.90;;;;;;20113879;29;20557;-50
2022/12/31 13:48:52;;;;;;;2.95;1.95;;;9.00;99.90;;;;;;19989551;29;20058;-54
2022/12/31 13:59:06;;;;;;;2.42;2.13;;;8.70;99.90;;;;;;20024520;29;20050;-53
2022/12/31 14:09:16;;;;;;;3.35;1.60;;;8.40;99.90;;;;;;20070942;29;20121;-55
2022/12/31 14:19:37;;;;;;;7.60;3.45;;;8.10;99.90;;;;;;20036520;29;20042;-55
2022/12/31 14:29:42;;;;;;;;;;;7.80;99.90;;;;;;19960524;29;20561;-56
2022/12/31 14:40:04;;;;;;;4.97;3.38;;;7.60;99.90;;;;;;20022597;29;20069;-52
2022/12/31 14:50:15;;;;;;;4.20;2.97;;;7.30;99.90;;;;;;20135663;29;20052;-53
2022/12/31 15:00:29;;;;;;;3.90;2.88;;;7.20;99.90;;;;;;20053395;29;20453;-52
2022/12/31 15:10:51;;;;;;;4.38;2.25;;;7.10;99.90;;;;;;20061272;29;20415;-50
2022/12/31 15:21:29;;;;;;;4.22;2.67;;;6.70;99.90;;;;;;20090478;29;20074;-53
2022/12/31 15:31:33;;;;;;;3.10;1.92;;;6.20;99.90;;;;;;20091185;29;20053;-54
2022/12/31 15:41:42;;;;;;;3.15;1.35;;;5.70;99.90;;;;;;20053868;29;20110;-55
2022/12/31 15:51:47;;;;;;;2.03;1.33;;;5.40;99.90;;;;;;20048214;29;20053;-54
2022/12/31 16:01:49;;;;;;;3.97;1.20;;;5.30;99.90;;;;;;20038808;29;20073;-60
2022/12/31 16:11:51;;;;;;;1.85;1.20;;;5.20;99.90;;;;;;20060150;29;20459;-60
2022/12/31 16:22:00;;;;;;;4.88;3.60;;;5.10;99.90;;;;;;20054354;29;20117;-56
2022/12/31 16:32:02;;;;;;;5.80;2.90;;;5.00;99.90;;;;;;20119979;29;20105;-59
2022/12/31 16:42:17;;;;;;;35.40;28.27;;;4.80;99.90;;;;;;20090913;29;20054;-60
2022/12/31 16:52:26;;;;;;;4.60;2.60;;;4.90;99.90;;;;;;20064138;29;20136;-58
2022/12/31 17:02:37;;;;;;;3.90;2.55;;;5.00;99.90;;;;;;20046154;29;20373;-60
2022/12/31 17:12:57;;;;;;;15.40;10.95;;;4.90;99.90;;;;;;20075029;29;20392;-60
2022/12/31 17:23:12;;;;;;;1.20;1.02;;;4.90;99.90;;;;;;20067241;29;20042;-60
2022/12/31 17:33:13;;;;;;;3.45;2.65;;;5.20;99.90;;;;;;20116266;29;20444;-59
2022/12/31 17:43:17;;;;;;;4.32;2.90;;;5.50;99.90;;;;;;20099223;29;20041;-60
2022/12/31 17:53:19;;;;;;;5.78;3.47;;;5.30;99.90;;;;;;20096194;29;20046;-55
2022/12/31 18:03:21;;;;;;;2.00;0.90;;;5.10;99.90;;;;;;20013335;29;20054;-56
2022/12/31 18:13:24;;;;;;;2.30;1.05;;;5.60;99.90;;;;;;20059380;29;20038;-60
2022/12/31 18:23:27;;;;;;;0.30;0.10;;;6.40;99.90;;;;;;20051203;29;20070;-50
2022/12/31 18:33:29;;;;;;;0.10;0.10;;;7.30;99.90;;;;;;20107803;29;20075;-60
2022/12/31 18:43:30;;;;;;;0.35;0.10;;;7.80;99.90;;;;;;20037487;29;20038;-52
2022/12/31 18:53:32;;;;;;;7.57;4.20;;;8.00;99.90;;;;;;20050490;29;20045;-55
2022/12/31 19:03:34;;;;;;;4.25;2.72;;;7.10;99.90;;;;;;20111487;29;20037;-55
2022/12/31 19:13:35;;;;;;;9.65;6.10;;;6.30;99.90;;;;;;20058693;29;20046;-55
2022/12/31 19:23:37;;;;;;;5.95;3.17;;;5.80;99.90;;;;;;20065141;29;20126;-49
2022/12/31 19:33:38;;;;;;;4.68;3.03;;;5.50;99.90;;;;;;20109987;29;20432;-53
2022/12/31 19:43:40;;;;;;;0.00;0.00;;;5.70;99.90;;;;;;20068594;29;20050;-60
2022/12/31 19:53:42;;;;;;;4.10;2.72;;;6.60;99.90;;;;;;20064400;29;20098;-60
2022/12/31 20:03:43;;;;;;;6.22;3.58;;;6.50;99.90;;;;;;20108451;29;20045;-60
2022/12/31 20:13:47;;;;;;;5.50;2.70;;;6.00;99.90;;;;;;20054862;29;20050;-60
2022/12/31 20:23:50;;;;;;;3.88;2.60;;;5.70;99.90;;;;;;20048054;29;20041;-52
2022/12/31 20:33:55;;;;;;;7.88;4.95;;;5.70;99.90;;;;;;20090932;29;20491;-50
2022/12/31 20:43:58;;;;;;;7.32;4.18;;;5.50;99.90;;;;;;20106816;29;20057;-60
2022/12/31 20:54:05;;;;;;;7.95;5.72;;;5.50;99.90;;;;;;20107267;29;20046;-60
2022/12/31 21:04:06;;;;;;;13.43;8.80;;;5.30;99.90;;;;;;20066962;29;20045;-56
2022/12/31 21:14:08;;;;;;;12.68;7.13;;;5.00;99.90;;;;;;20043370;29;20066;-60
2022/12/31 21:24:10;;;;;;;10.60;6.13;;;5.00;99.90;;;;;;20061320;29;20054;-59
2022/12/31 21:34:12;;;;;;;9.93;5.63;;;4.90;99.90;;;;;;20118720;29;20106;-60
2022/12/31 21:44:13;;;;;;;11.80;7.05;;;4.90;99.90;;;;;;20044092;29;20038;-51
2022/12/31 21:56:07;;;;;;;10.90;6.82;;;4.80;99.90;;;;;;20077016;29;20045;-60
2022/12/31 22:04:37;;;;;;;15.35;8.90;;;4.80;99.90;;;;;;20115553;29;20053;-50
2022/12/31 22:14:38;;;;;;;15.23;9.02;;;4.70;99.90;;;;;;20055390;29;20050;-53
2022/12/31 22:24:40;;;;;;;59.40;12.15;;;4.60;99.90;;;;;;20077340;29;20114;-49
2022/12/31 22:34:41;;;;;;;15.75;9.55;;;4.60;99.90;;;;;;20104618;29;20067;-60
2022/12/31 22:44:43;;;;;;;14.13;8.25;;;4.60;99.90;;;;;;20064284;29;20117;-60
2022/12/31 22:54:45;;;;;;;13.27;8.07;;;4.60;99.90;;;;;;20076510;29;20403;-60
2022/12/31 23:04:46;;;;;;;10.00;7.10;;;4.40;99.90;;;;;;20111370;29;20057;-51
2022/12/31 23:25:08;;;;;;;9.15;5.32;;;4.90;99.90;;;;;;20078106;29;20044;-53
2022/12/31 23:35:09;;;;;;;9.43;6.28;;;5.10;99.90;;;;;;20111131;29;20037;-60
2022/12/31 23:45:11;;;;;;;12.15;8.80;;;5.10;99.90;;;;;;20109487;29;20057;-52
2022/12/31 23:55:13;;;;;;;11.52;7.22;;;5.10;99.90;;;;;;20108945;29;20045;-60
